Catàleg de serveis del Meteocat
Campanya meteocatpedra

Dades de l'estació automàtica Batea

?
?
Resum diari 21:30 TU
Dades diàries de l'estació meteorològica
Temperatura mitjana 8.8 °C
Temperatura màxima 12.9 °C 14:51 TU
Temperatura mínima 6.6 °C 1:48 TU
Humitat relativa mitjana 84%
Precipitació acumulada 9.3 mm
Ratxa màxima del vent (2 m) 30.6 km/h - 325º 14:55 TU
Irradiació solar global 3.3 MJ/m2

El tram horari està expressat en Temps Universal (TU). Cal sumar una hora en horari d'hivern i dues en horari d'estiu per passar a l'hora oficial.

Batea

Metadades estació meteorol´gica
Municipi Batea
Comarca Terra Alta
Altitud 382 m
Data alta 23.12.1999
Estat actual Operativa
Dades de període
Període
TU
TM
°C
TX
°C
TN
°C
HRM
%
PPT
mm
VVM (2 m)
km/h
DVM (2 m)
graus
VVX (2 m)
km/h
RS
W/m2
00:00 - 00:30 8.5 8.9 8.1 74 0.0 1.8 270 10.1 0
00:30 - 01:00 7.7 8.0 7.4 77 0.0 1.4 221 6.1 0
01:00 - 01:30 7.7 7.9 7.4 78 0.0 1.4 241 8.3 0
01:30 - 02:00 6.9 7.5 6.6 81 0.0 0.4 65 2.9 0
02:00 - 02:30 6.9 7.2 6.8 81 0.0 0.7 165 4.7 0
02:30 - 03:00 7.5 7.6 7.3 79 0.0 1.8 175 5.0 0
03:00 - 03:30 8.0 8.7 7.4 77 0.0 1.8 179 4.0 0
03:30 - 04:00 7.6 8.4 7.3 80 0.0 0.4 176 2.5 0
04:00 - 04:30 7.6 8.4 7.1 83 0.0 0.0 132 0.7 0
04:30 - 05:00 7.9 8.1 7.7 87 0.4 0.0 154 1.8 0
05:00 - 05:30 7.7 7.8 7.5 94 0.3 1.8 170 4.0 0
05:30 - 06:00 8.0 8.1 7.9 94 0.3 2.2 184 6.5 0
06:00 - 06:30 8.0 8.0 8.0 95 0.4 2.2 188 4.7 0
06:30 - 07:00 8.0 8.1 7.9 95 0.7 1.1 187 6.1 1
07:00 - 07:30 8.0 8.2 7.9 97 0.9 0.0 198 2.5 4
07:30 - 08:00 8.0 8.1 8.0 97 1.0 0.0 227 2.2 11
08:00 - 08:30 8.0 8.1 7.9 98 1.6 4.0 340 10.4 18
08:30 - 09:00 7.7 7.9 7.5 98 2.1 6.5 331 15.1 22
09:00 - 09:30 7.4 7.5 7.4 98 1.1 5.8 324 13.3 44
09:30 - 10:00 7.6 7.8 7.5 98 0.4 4.3 318 11.9 68
10:00 - 10:30 7.8 8.0 7.7 98 0.1 4.7 307 13.0 82
10:30 - 11:00 8.1 8.5 7.8 98 0.0 4.7 307 15.8 116
11:00 - 11:30 8.3 8.4 8.2 98 0.0 4.7 309 16.6 66
11:30 - 12:00 8.5 8.6 8.4 97 0.0 3.2 303 11.9 66
12:00 - 12:30 8.9 9.6 8.6 96 0.0 2.2 284 8.6 124
12:30 - 13:00 10.0 10.2 9.6 94 0.0 3.6 286 12.2 221
13:00 - 13:30 10.2 10.5 10.0 91 0.0 4.3 268 12.6 229
13:30 - 14:00 11.0 11.3 10.5 88 0.0 4.0 273 15.8 207
14:00 - 14:30 11.5 12.0 11.2 76 0.0 6.5 300 22.0 96
14:30 - 15:00 12.4 12.9 12.0 65 0.0 9.0 316 30.6 228
15:00 - 15:30 12.0 12.4 11.7 65 0.0 7.6 309 24.1 158
15:30 - 16:00 11.8 12.0 11.4 66 0.0 6.1 310 23.8 58
16:00 - 16:30 11.1 11.4 10.8 66 0.0 6.5 307 21.2 17
16:30 - 17:00 10.5 10.8 10.3 70 0.0 4.3 282 17.6 4
17:00 - 17:30 10.4 10.5 10.1 69 0.0 6.5 306 18.0 0
17:30 - 18:00 9.9 10.1 9.6 73 0.0 4.7 292 16.6 0
18:00 - 18:30 9.4 9.6 9.2 76 0.0 4.3 249 11.5 0
18:30 - 19:00 9.3 9.4 9.1 74 0.0 4.0 250 11.2 0
19:00 - 19:30 8.8 9.0 8.6 77 0.0 2.9 241 8.6 0
19:30 - 20:00 8.5 8.7 8.0 77 0.0 2.5 215 8.3 0
20:00 - 20:30 8.1 8.5 7.7 78 0.0 5.4 184 11.5 0
20:30 - 21:00 7.9 8.3 7.7 78 0.0 5.4 190 11.5 0
21:00 - 21:30 8.3 8.5 8.1 75 0.0 6.1 192 13.0 0
21:30 - 22:00 7.9 8.1 7.6 76 0.0 4.0 185 8.6 0

Les dades en taronja només han passat un control de qualitat automàtic. Resta pendent la seva validació definitiva.